Time;durP1;ratioP1;P1;durP2;ratioP2;P2;SDS_P1;SDS_P2;PMS_P1;PMS_P2;Temp;Humidity;BMP_temperature;BMP_pressure;BME280_temperature;BME280_humidity;BME280_pressure;Samples;Min_cycle;Max_cycle;Signal;HPM_P1;HPM_P2
2023/03/13 00:01:09;;;;;;;24.38;13.43;;;;;;;12.46;81.02;100145.19;5014987;28;20061;-41
2023/03/13 00:03:34;;;;;;;;;;;;;;;12.60;79.50;100144.94;5015441;28;20025;-41
2023/03/13 00:05:59;;;;;;;24.87;13.13;;;;;;;12.48;80.29;100144.84;5014930;28;19969;-41
2023/03/13 00:08:27;;;;;;;23.98;13.63;;;;;;;12.46;81.46;100134.09;5014830;28;20515;-41
2023/03/13 00:10:53;;;;;;;23.35;12.57;;;;;;;12.45;81.77;100126.91;5014807;28;20113;-41
2023/03/13 00:13:18;;;;;;;23.33;13.32;;;;;;;12.47;81.67;100121.84;5014973;28;20118;-41
2023/03/13 00:15:43;;;;;;;23.38;12.93;;;;;;;12.48;81.95;100119.88;5008120;28;20022;-41
2023/03/13 00:18:09;;;;;;;21.60;12.70;;;;;;;12.47;82.36;100116.28;5014441;28;20029;-43
2023/03/13 00:20:34;;;;;;;23.20;13.45;;;;;;;12.48;82.91;100106.00;5013004;28;20026;-41
2023/03/13 00:22:59;;;;;;;21.52;12.93;;;;;;;12.50;83.34;100100.94;5014380;28;20465;-41
2023/03/13 00:25:24;;;;;;;23.02;13.30;;;;;;;12.50;83.27;100100.13;5014667;28;20026;-42
2023/03/13 00:27:50;;;;;;;24.80;13.48;;;;;;;12.47;83.69;100088.56;5014589;28;20026;-41
2023/03/13 00:30:15;;;;;;;24.40;13.40;;;;;;;12.46;84.12;100086.91;5013681;28;20058;-42
2023/03/13 00:32:42;;;;;;;23.15;13.25;;;;;;;12.45;84.90;100082.53;5014510;28;20052;-41
2023/03/13 00:35:07;;;;;;;26.20;13.25;;;;;;;12.41;84.75;100080.75;5014246;28;20121;-41
2023/03/13 00:37:32;;;;;;;24.25;13.07;;;;;;;12.41;84.93;100070.50;5014487;28;20504;-41
2023/03/13 00:39:58;;;;;;;23.45;13.00;;;;;;;12.37;85.61;100066.75;5014499;28;20034;-40
2023/03/13 00:42:23;;;;;;;24.00;13.20;;;;;;;12.36;85.90;100062.34;5014447;28;20428;-41
2023/03/13 00:44:48;;;;;;;23.35;13.80;;;;;;;12.37;85.97;100058.44;5022810;28;20033;-41
2023/03/13 00:47:14;;;;;;;22.42;12.75;;;;;;;12.33;86.59;100044.44;5033687;28;20026;-41
2023/03/13 00:49:39;;;;;;;24.05;13.30;;;;;;;12.33;86.22;100038.06;5033237;28;20033;-41
2023/03/13 00:52:04;;;;;;;20.80;12.70;;;;;;;12.36;86.51;100042.94;5033853;28;20435;-42
2023/03/13 00:54:30;;;;;;;24.08;13.80;;;;;;;12.29;86.96;100037.94;5034221;28;20072;-41
2023/03/13 00:56:55;;;;;;;20.50;12.50;;;;;;;12.31;86.94;100032.06;5033971;28;20028;-41
2023/03/13 00:59:20;;;;;;;23.30;13.27;;;;;;;12.31;87.67;100018.19;5033894;28;20464;-41
2023/03/13 01:01:46;;;;;;;24.30;13.85;;;;;;;12.32;87.86;100020.63;5033224;28;20116;-42
2023/03/13 01:04:12;;;;;;;24.92;13.57;;;;;;;12.35;87.88;100016.34;5032935;28;20052;-42
2023/03/13 01:06:41;;;;;;;23.48;13.50;;;;;;;12.32;88.91;100003.19;5033790;28;20468;-41
2023/03/13 01:09:10;;;;;;;23.92;13.35;;;;;;;12.33;88.58;99996.47;5033532;28;20021;-41
2023/03/13 01:11:38;;;;;;;22.30;13.50;;;;;;;12.30;88.51;99986.06;5026644;28;20116;-41
2023/03/13 01:14:06;;;;;;;24.20;13.30;;;;;;;12.33;89.01;99986.19;5032928;28;20200;-41
2023/03/13 01:16:33;;;;;;;21.33;12.90;;;;;;;12.37;88.57;99979.97;5032044;28;20033;-41
2023/03/13 01:19:02;;;;;;;25.45;13.43;;;;;;;12.32;89.24;99961.59;5033401;28;20029;-42
2023/03/13 01:21:27;;;;;;;21.65;13.48;;;;;;;12.35;88.95;99958.13;5032894;28;20539;-41
2023/03/13 01:23:54;;;;;;;22.65;13.73;;;;;;;12.34;89.27;99970.34;5033105;28;20053;-42
2023/03/13 01:26:20;;;;;;;25.20;13.40;;;;;;;12.30;89.47;99955.56;5031637;28;20030;-40
2023/03/13 01:28:46;;;;;;;22.33;13.38;;;;;;;12.29;89.53;99943.63;5032725;28;20032;-41
2023/03/13 01:31:36;;;;;;;23.67;13.57;;;;;;;12.33;90.01;99941.00;5032107;28;20038;-41
2023/03/13 01:34:04;;;;;;;22.98;13.57;;;;;;;12.33;90.10;99936.28;5032303;28;20080;-41
2023/03/13 01:36:29;;;;;;;23.25;13.40;;;;;;;12.33;89.77;99930.72;5032561;28;20392;-41
2023/03/13 01:38:57;;;;;;;21.08;13.70;;;;;;;12.33;91.33;99935.44;5032322;28;20021;-41
2023/03/13 01:41:23;;;;;;;21.45;13.60;;;;;;;12.29;90.81;99932.53;5032197;28;20029;-42
2023/03/13 01:43:49;;;;;;;20.95;13.57;;;;;;;12.27;90.99;99920.19;5032346;28;20117;-41
2023/03/13 01:46:18;;;;;;;19.95;13.25;;;;;;;12.33;90.92;99921.56;5032551;28;20108;-40
2023/03/13 01:49:24;;;;;;;20.58;13.50;;;;;;;12.42;90.17;99910.41;5032569;28;20113;-41
2023/03/13 01:52:09;;;;;;;20.63;13.40;;;;;;;12.37;91.12;99894.00;4970254;28;20033;-41
2023/03/13 01:54:41;;;;;;;21.58;13.80;;;;;;;12.36;90.72;99886.81;4971545;28;20031;-41
2023/03/13 01:57:18;;;;;;;21.77;13.70;;;;;;;12.36;91.58;99892.38;5011297;28;20116;-41
2023/03/13 01:59:51;;;;;;;20.90;13.52;;;;;;;12.29;92.43;99876.28;5032093;28;20071;-42
2023/03/13 02:02:17;;;;;;;21.23;14.25;;;;;;;12.27;92.62;99873.03;5015679;28;20034;-41
2023/03/13 02:04:49;;;;;;;20.35;13.80;;;;;;;12.29;92.30;99862.41;5012836;28;20379;-41
2023/03/13 02:07:20;;;;;;;21.02;13.43;;;;;;;12.32;91.63;99851.44;5005154;28;20056;-41
2023/03/13 02:09:50;;;;;;;21.08;13.63;;;;;;;12.37;92.78;99844.88;5012813;28;20468;-42
2023/03/13 02:12:28;;;;;;;19.90;13.07;;;;;;;12.42;93.48;99849.41;5011875;28;20029;-43
2023/03/13 02:14:55;;;;;;;18.90;12.70;;;;;;;12.43;93.10;99839.91;5012036;28;20026;-43
2023/03/13 02:17:20;;;;;;;20.15;13.35;;;;;;;12.47;94.30;99832.50;5011129;28;20030;-41
2023/03/13 02:19:48;;;;;;;20.25;13.38;;;;;;;12.43;94.49;99829.63;5012753;28;20033;-43
2023/03/13 02:22:26;;;;;;;20.33;12.95;;;;;;;12.45;95.50;99823.75;5012506;28;20080;-42
2023/03/13 02:25:05;;;;;;;20.05;13.43;;;;;;;12.46;95.30;99817.06;5012259;28;20026;-42
2023/03/13 02:27:31;;;;;;;21.13;13.68;;;;;;;12.45;95.69;99807.91;5012456;28;20060;-41
2023/03/13 02:29:58;;;;;;;20.92;13.00;;;;;;;12.48;95.72;99792.53;5012368;28;20453;-40
2023/03/13 02:32:25;;;;;;;20.55;13.10;;;;;;;12.46;96.23;99767.91;5011626;28;20033;-41
2023/03/13 02:34:55;;;;;;;21.42;13.00;;;;;;;12.50;96.49;99770.00;5011556;28;20065;-41
2023/03/13 02:37:22;;;;;;;20.58;13.20;;;;;;;12.47;96.04;99780.63;5011740;28;20473;-41
2023/03/13 02:39:50;;;;;;;19.30;12.90;;;;;;;12.44;96.56;99769.44;5011888;28;20378;-42
2023/03/13 02:42:19;;;;;;;19.15;13.05;;;;;;;12.45;96.53;99784.91;5011768;28;20034;-42
2023/03/13 02:44:45;;;;;;;17.98;11.90;;;;;;;12.52;96.63;99776.00;5011803;28;20025;-42
2023/03/13 02:47:11;;;;;;;18.60;12.05;;;;;;;12.58;96.55;99769.88;5011486;28;20084;-41
2023/03/13 02:49:37;;;;;;;19.35;12.68;;;;;;;12.56;97.02;99779.72;5011597;28;20026;-41
2023/03/13 02:52:17;;;;;;;17.58;12.25;;;;;;;12.51;97.49;99771.63;5011471;28;20555;-41
2023/03/13 02:54:46;;;;;;;21.02;14.02;;;;;;;12.45;97.74;99771.06;5011299;28;20088;-41
2023/03/13 02:57:12;;;;;;;18.88;13.40;;;;;;;12.52;97.55;99771.28;5010777;28;20087;-41
2023/03/13 02:59:37;;;;;;;19.65;13.38;;;;;;;12.53;97.89;99770.13;5011747;28;20026;-41
2023/03/13 03:02:03;;;;;;;19.13;13.07;;;;;;;12.51;98.74;99775.22;5004457;28;20046;-41
2023/03/13 03:04:29;;;;;;;18.77;12.95;;;;;;;12.51;98.54;99779.97;5011092;28;20030;-42
2023/03/13 03:06:54;;;;;;;20.20;13.35;;;;;;;12.49;98.61;99774.72;5010462;28;20068;-41
2023/03/13 03:09:20;;;;;;;19.23;13.93;;;;;;;12.44;99.21;99778.53;5012454;28;20022;-42
2023/03/13 03:11:46;;;;;;;19.60;13.30;;;;;;;12.46;99.73;99779.03;5012403;28;20037;-41
2023/03/13 03:14:12;;;;;;;18.05;13.27;;;;;;;12.47;99.93;99788.13;5012763;28;20037;-42
2023/03/13 03:16:38;;;;;;;19.63;13.45;;;;;;;12.50;99.69;99778.34;5012463;28;20112;-42
2023/03/13 03:19:05;;;;;;;18.65;13.63;;;;;;;12.49;99.92;99769.19;5011985;28;20029;-41
2023/03/13 03:21:31;;;;;;;18.45;13.68;;;;;;;12.52;100.00;99770.44;5010870;28;20480;-42
2023/03/13 03:23:56;;;;;;;18.63;13.38;;;;;;;12.53;99.55;99763.75;5010651;28;20113;-41
2023/03/13 03:26:22;;;;;;;19.05;13.57;;;;;;;12.51;99.80;99755.78;5011516;28;20145;-42
2023/03/13 03:28:47;;;;;;;18.90;13.20;;;;;;;12.57;99.84;99757.16;5010432;28;20034;-42
2023/03/13 03:31:14;;;;;;;19.45;13.68;;;;;;;12.54;100.00;99763.44;5010968;28;20117;-42
2023/03/13 03:33:40;;;;;;;18.40;12.98;;;;;;;12.60;99.99;99772.34;5010415;28;20034;-42
2023/03/13 03:36:08;;;;;;;18.20;13.27;;;;;;;12.61;100.00;99758.09;5011019;28;20033;-42
2023/03/13 03:38:35;;;;;;;18.38;13.05;;;;;;;12.64;100.00;99757.41;5011131;28;20101;-41
2023/03/13 03:41:00;;;;;;;18.50;12.82;;;;;;;12.65;100.00;99761.00;5010986;28;20036;-41
2023/03/13 03:43:26;;;;;;;18.35;13.40;;;;;;;12.65;100.00;99766.53;5010696;28;20026;-42
2023/03/13 03:45:51;;;;;;;19.00;13.70;;;;;;;12.64;100.00;99756.59;5009445;28;20064;-40
2023/03/13 03:48:16;;;;;;;19.73;12.90;;;;;;;12.67;100.00;99758.69;5010705;28;20029;-41
2023/03/13 03:50:42;;;;;;;19.90;13.00;;;;;;;12.74;99.95;99766.44;5010664;28;20028;-42
2023/03/13 03:53:08;;;;;;;18.02;13.25;;;;;;;12.75;99.99;99762.50;5010255;28;20057;-42
2023/03/13 03:55:33;;;;;;;22.45;12.70;;;;;;;12.74;98.43;99755.34;5010884;28;20416;-41
2023/03/13 03:57:59;;;;;;;17.95;13.13;;;;;;;12.77;100.00;99760.19;5007330;28;20038;-43
2023/03/13 04:00:24;;;;;;;21.38;13.20;;;;;;;12.78;100.00;99772.91;5011137;28;20089;-41
2023/03/13 04:02:49;;;;;;;18.35;13.13;;;;;;;12.77;100.00;99761.00;5011357;28;20037;-41
2023/03/13 04:05:15;;;;;;;19.45;13.52;;;;;;;12.74;100.00;99752.56;5011507;28;20038;-41
2023/03/13 04:07:40;;;;;;;20.58;13.68;;;;;;;12.75;100.00;99754.97;5010054;28;20082;-41
2023/03/13 04:10:06;;;;;;;18.55;13.90;;;;;;;12.76;100.00;99750.22;5011577;28;20030;-42
2023/03/13 04:12:31;;;;;;;19.08;13.30;;;;;;;12.77;100.00;99740.75;5011483;28;20026;-41
2023/03/13 04:14:57;;;;;;;18.58;13.13;;;;;;;12.78;100.00;99753.47;5015016;28;20366;-42
2023/03/13 04:17:22;;;;;;;19.70;13.60;;;;;;;12.79;100.00;99738.44;5030994;28;20476;-41
2023/03/13 04:19:47;;;;;;;18.70;13.57;;;;;;;12.78;100.00;99748.75;5034815;28;20120;-41
2023/03/13 04:22:13;;;;;;;19.05;13.63;;;;;;;12.79;100.00;99746.75;5034635;28;20021;-41
2023/03/13 04:24:38;;;;;;;18.95;13.55;;;;;;;12.80;100.00;99738.09;5034342;28;20722;-41
2023/03/13 04:27:05;;;;;;;19.65;14.70;;;;;;;12.80;100.00;99721.44;5034451;28;20030;-42
2023/03/13 04:29:31;;;;;;;19.60;14.40;;;;;;;12.78;100.00;99728.50;5034403;28;20430;-41
2023/03/13 04:31:56;;;;;;;21.15;13.63;;;;;;;12.79;100.00;99711.50;5034338;28;20490;-41
2023/03/13 04:34:22;;;;;;;18.70;13.90;;;;;;;12.81;100.00;99700.06;5034079;28;20045;-41
2023/03/13 04:36:47;;;;;;;19.40;14.07;;;;;;;12.81;100.00;99694.50;5033935;28;20044;-42
2023/03/13 04:39:12;;;;;;;18.15;14.13;;;;;;;12.82;100.00;99696.13;5034250;28;20028;-46
2023/03/13 04:41:38;;;;;;;18.75;13.93;;;;;;;12.81;100.00;99683.41;5034332;28;20067;-41
2023/03/13 04:44:03;;;;;;;20.83;14.05;;;;;;;12.84;100.00;99679.09;5034334;28;20080;-42
2023/03/13 04:46:28;;;;;;;18.65;14.20;;;;;;;12.84;100.00;99677.16;5034158;28;20072;-42
2023/03/13 04:48:54;;;;;;;18.88;14.05;;;;;;;12.87;100.00;99675.66;5034035;28;20017;-41
2023/03/13 04:51:19;;;;;;;18.67;13.52;;;;;;;12.88;100.00;99668.94;5034068;28;20025;-41
2023/03/13 04:53:44;;;;;;;18.67;13.60;;;;;;;12.90;100.00;99661.03;5029597;28;20029;-41
2023/03/13 04:56:15;;;;;;;18.67;13.60;;;;;;;12.92;100.00;99664.28;5034159;28;20025;-41
2023/03/13 04:58:40;;;;;;;18.50;13.48;;;;;;;12.97;100.00;99664.06;5034045;28;20029;-42
2023/03/13 05:01:05;;;;;;;19.42;13.65;;;;;;;12.98;100.00;99660.13;5033999;28;20052;-41
2023/03/13 05:03:31;;;;;;;19.25;13.90;;;;;;;13.01;100.00;99680.81;5033721;28;20037;-41
2023/03/13 05:05:56;;;;;;;19.45;13.85;;;;;;;13.00;100.00;99660.56;5032575;28;20446;-42
2023/03/13 05:08:21;;;;;;;19.52;13.43;;;;;;;13.05;100.00;99665.88;5033760;28;20029;-42
2023/03/13 05:10:47;;;;;;;19.25;13.75;;;;;;;13.06;100.00;99667.50;5033822;28;20431;-42
2023/03/13 05:13:12;;;;;;;19.50;13.48;;;;;;;13.08;100.00;99645.72;5033725;28;20041;-43
2023/03/13 05:15:37;;;;;;;18.55;13.27;;;;;;;13.06;100.00;99647.25;5033627;28;20022;-41
2023/03/13 05:18:03;;;;;;;18.65;13.23;;;;;;;13.07;100.00;99641.34;5033599;28;20473;-41
2023/03/13 05:20:28;;;;;;;18.77;13.55;;;;;;;13.12;100.00;99651.41;5033570;28;20029;-42
2023/03/13 05:22:53;;;;;;;17.88;13.52;;;;;;;13.12;100.00;99648.63;5033509;28;20029;-42
2023/03/13 05:25:19;;;;;;;18.88;13.43;;;;;;;13.13;100.00;99650.22;5032767;28;20040;-42
2023/03/13 05:27:44;;;;;;;18.30;13.40;;;;;;;13.14;100.00;99654.59;5033456;28;20420;-42
2023/03/13 05:30:10;;;;;;;18.70;13.15;;;;;;;13.15;99.74;99638.78;5033212;28;20033;-42
2023/03/13 05:32:36;;;;;;;18.15;13.45;;;;;;;13.17;99.30;99634.47;5033317;28;20047;-41
2023/03/13 05:35:01;;;;;;;19.40;13.38;;;;;;;13.18;99.04;99630.53;5033135;28;20030;-43
2023/03/13 05:37:26;;;;;;;19.42;12.93;;;;;;;13.22;98.51;99634.25;5032022;28;20018;-42
2023/03/13 05:39:52;;;;;;;19.60;13.07;;;;;;;13.23;98.43;99646.13;5031892;28;20034;-42
2023/03/13 05:42:17;;;;;;;19.83;13.20;;;;;;;13.26;98.53;99645.44;5032563;28;20232;-42
2023/03/13 05:44:42;;;;;;;20.05;13.45;;;;;;;13.26;98.43;99648.22;5032581;28;20068;-42
2023/03/13 05:47:08;;;;;;;18.90;13.00;;;;;;;13.23;98.00;99635.81;5032420;28;20059;-42
2023/03/13 05:49:33;;;;;;;18.33;13.00;;;;;;;13.26;98.28;99654.56;5026096;28;20029;-42
2023/03/13 05:51:59;;;;;;;18.48;12.98;;;;;;;13.29;97.59;99643.91;5032206;28;20380;-42
2023/03/13 05:54:24;;;;;;;18.83;12.85;;;;;;;13.29;97.68;99636.38;5032732;28;20120;-41
2023/03/13 05:56:50;;;;;;;19.90;13.48;;;;;;;13.29;97.57;99633.59;5032402;28;20025;-42
2023/03/13 05:59:16;;;;;;;19.85;12.68;;;;;;;13.29;97.50;99641.13;5032271;28;20598;-42
2023/03/13 06:01:41;;;;;;;20.02;13.65;;;;;;;13.33;97.49;99642.03;5031779;28;20472;-42
2023/03/13 06:04:07;;;;;;;19.73;13.07;;;;;;;13.35;97.00;99653.59;5031561;28;20033;-42
2023/03/13 06:06:32;;;;;;;19.02;13.10;;;;;;;13.36;96.58;99647.72;5031819;28;20037;-41
2023/03/13 06:08:57;;;;;;;18.13;12.57;;;;;;;13.37;96.60;99642.94;5032446;28;20071;-42
2023/03/13 06:11:23;;;;;;;19.80;12.70;;;;;;;13.36;95.92;99644.94;5031935;28;20077;-41
2023/03/13 06:13:52;;;;;;;18.60;12.45;;;;;;;13.45;95.93;99644.00;5032388;28;20063;-42
2023/03/13 06:16:17;;;;;;;21.52;12.40;;;;;;;13.49;95.52;99633.78;5031122;28;20026;-41
2023/03/13 06:18:43;;;;;;;18.95;12.70;;;;;;;13.54;94.87;99647.41;5032348;28;20040;-42
2023/03/13 06:21:09;;;;;;;19.52;12.27;;;;;;;13.64;94.46;99638.56;5032467;28;20036;-42
2023/03/13 06:23:35;;;;;;;18.85;12.32;;;;;;;13.70;93.75;99639.91;5032235;28;20072;-41
2023/03/13 06:26:01;;;;;;;19.50;12.15;;;;;;;13.77;93.07;99632.91;5032313;28;20033;-42
2023/03/13 06:28:26;;;;;;;18.48;12.50;;;;;;;13.78;92.35;99627.00;5023410;28;20025;-41
2023/03/13 06:30:51;;;;;;;17.70;12.55;;;;;;;13.83;91.84;99626.72;5020707;28;20449;-41
2023/03/13 06:33:17;;;;;;;18.35;12.80;;;;;;;13.84;91.42;99627.53;5026292;28;20033;-41
2023/03/13 06:35:43;;;;;;;19.38;12.30;;;;;;;13.87;91.08;99630.41;5031638;28;20021;-42
2023/03/13 06:38:09;;;;;;;20.70;12.75;;;;;;;13.86;90.98;99627.97;5031540;28;20439;-42
2023/03/13 06:40:34;;;;;;;19.80;12.27;;;;;;;13.89;90.54;99619.72;5032185;28;20037;-42
2023/03/13 06:43:00;;;;;;;19.58;12.70;;;;;;;13.85;90.33;99618.03;5031965;28;20380;-42
2023/03/13 06:45:25;;;;;;;20.05;12.70;;;;;;;13.86;90.55;99637.16;5031859;28;20029;-41
2023/03/13 06:47:51;;;;;;;22.25;12.40;;;;;;;13.83;90.54;99637.06;5027791;28;20026;-40
2023/03/13 06:50:16;;;;;;;20.50;12.57;;;;;;;13.83;90.64;99637.06;5031574;28;20488;-42
2023/03/13 06:52:42;;;;;;;18.17;12.00;;;;;;;13.80;90.82;99621.09;5031466;28;20559;-43
2023/03/13 06:55:08;;;;;;;20.50;12.90;;;;;;;13.80;90.59;99632.19;5032071;28;20051;-43
2023/03/13 06:57:33;;;;;;;19.55;12.40;;;;;;;13.75;90.56;99626.91;5030638;28;20400;-41
2023/03/13 06:59:58;;;;;;;19.98;12.70;;;;;;;13.78;90.26;99620.63;5031806;28;20033;-42
2023/03/13 07:02:23;;;;;;;20.42;12.45;;;;;;;13.78;90.38;99627.00;5031796;28;20112;-43
2023/03/13 07:04:49;;;;;;;18.65;12.80;;;;;;;13.75;90.40;99605.47;5031992;28;20476;-42
2023/03/13 07:07:14;;;;;;;19.70;12.82;;;;;;;13.80;90.21;99621.09;5031778;28;20030;-41
2023/03/13 07:09:39;;;;;;;20.65;13.30;;;;;;;13.81;90.11;99629.06;5031106;28;20116;-41
2023/03/13 07:12:05;;;;;;;20.42;13.07;;;;;;;13.80;89.88;99626.66;5030380;28;20384;-42
2023/03/13 07:14:30;;;;;;;19.85;12.80;;;;;;;13.79;90.19;99623.03;5030263;28;20061;-43
2023/03/13 07:16:58;;;;;;;20.63;13.10;;;;;;;13.81;90.18;99628.25;5030216;28;20107;-42
2023/03/13 07:19:24;;;;;;;20.50;12.95;;;;;;;13.82;89.82;99616.78;5030522;28;20030;-42
2023/03/13 07:21:51;;;;;;;19.25;12.65;;;;;;;13.83;89.91;99631.50;5030391;28;20049;-42
2023/03/13 07:24:16;;;;;;;18.48;12.50;;;;;;;13.83;90.00;99635.06;5030238;28;20075;-42
2023/03/13 07:26:42;;;;;;;19.27;12.30;;;;;;;13.87;89.88;99612.91;5031840;28;20029;-42
2023/03/13 07:29:07;;;;;;;19.38;12.32;;;;;;;13.88;89.44;99620.91;5031671;28;20432;-42
2023/03/13 07:31:32;;;;;;;18.25;12.60;;;;;;;13.91;89.45;99621.34;5031370;28;20393;-41
2023/03/13 07:33:58;;;;;;;20.98;13.07;;;;;;;13.89;89.54;99618.94;5031593;28;20044;-42
2023/03/13 07:36:24;;;;;;;22.80;12.77;;;;;;;13.92;89.50;99625.75;5031358;28;20018;-42
2023/03/13 07:38:50;;;;;;;19.60;13.00;;;;;;;13.93;89.75;99630.13;5031407;28;20022;-41
2023/03/13 07:41:16;;;;;;;18.55;12.40;;;;;;;13.95;89.46;99628.59;5031477;28;20033;-42
2023/03/13 07:43:41;;;;;;;19.83;12.52;;;;;;;13.99;89.37;99621.19;5031383;28;20038;-41
2023/03/13 07:46:08;;;;;;;18.17;12.40;;;;;;;13.96;89.12;99627.44;5031386;28;20519;-42
2023/03/13 07:48:38;;;;;;;18.67;12.43;;;;;;;13.98;89.49;99607.66;5032649;28;20034;-42
2023/03/13 07:51:06;;;;;;;20.33;12.77;;;;;;;14.05;88.61;99627.28;5035204;28;20041;-42
2023/03/13 07:53:31;;;;;;;21.02;12.88;;;;;;;14.12;88.61;99615.53;5033833;28;20021;-40
2023/03/13 07:56:05;;;;;;;18.65;13.00;;;;;;;14.20;88.36;99625.66;5035100;28;20499;-40
2023/03/13 07:58:33;;;;;;;18.30;12.27;;;;;;;14.34;87.10;99641.88;5033813;28;20031;-40
2023/03/13 08:00:59;;;;;;;17.88;12.48;;;;;;;14.44;86.60;99632.97;5035028;28;20431;-39
2023/03/13 08:03:25;;;;;;;19.38;12.35;;;;;;;14.41;87.02;99630.91;5034893;28;20029;-40
2023/03/13 08:05:58;;;;;;;19.33;12.40;;;;;;;14.42;86.92;99618.63;5034964;28;20038;-41
2023/03/13 08:08:23;;;;;;;18.83;12.10;;;;;;;14.39;87.03;99622.09;5029849;28;20021;-40
2023/03/13 08:10:48;;;;;;;18.38;11.77;;;;;;;14.43;87.33;99611.88;5013828;28;20280;-40
2023/03/13 08:13:13;;;;;;;18.95;12.20;;;;;;;14.47;86.82;99611.97;5012762;28;20527;-41
2023/03/13 08:15:39;;;;;;;20.25;12.20;;;;;;;14.50;87.13;99609.25;5012906;28;20097;-41
2023/03/13 08:18:04;;;;;;;19.65;12.43;;;;;;;14.45;86.46;99594.81;5012811;28;20393;-40
2023/03/13 08:20:29;;;;;;;18.90;12.30;;;;;;;14.56;86.36;99606.16;5012961;28;20037;-41
2023/03/13 08:22:55;;;;;;;18.25;11.82;;;;;;;14.56;85.81;99592.25;5012730;28;20389;-41
2023/03/13 08:25:21;;;;;;;18.60;12.20;;;;;;;14.55;86.12;99585.91;5012865;28;20072;-41
2023/03/13 08:27:46;;;;;;;18.65;12.00;;;;;;;14.64;85.13;99592.06;5012426;28;20053;-40
2023/03/13 08:30:12;;;;;;;19.20;12.55;;;;;;;14.65;85.22;99590.06;5012550;28;20116;-40
2023/03/13 08:32:37;;;;;;;19.63;12.27;;;;;;;14.66;85.23;99594.47;5012796;28;20439;-40
2023/03/13 08:35:03;;;;;;;19.90;12.00;;;;;;;14.66;84.78;99602.81;5012575;28;20048;-40
2023/03/13 08:37:29;;;;;;;18.17;11.63;;;;;;;14.64;84.91;99607.97;5012608;28;20507;-40
2023/03/13 08:39:55;;;;;;;17.60;11.85;;;;;;;14.66;85.81;99613.94;5012544;28;20048;-40
2023/03/13 08:42:22;;;;;;;18.10;11.75;;;;;;;14.63;85.78;99598.78;5016423;28;20025;-41
2023/03/13 08:44:47;;;;;;;17.83;11.95;;;;;;;14.63;86.13;99615.50;5020661;28;20070;-40
2023/03/13 08:47:13;;;;;;;18.48;11.85;;;;;;;14.50;86.00;99567.50;5022926;28;20495;-40
2023/03/13 08:49:38;;;;;;;18.75;11.90;;;;;;;14.59;85.92;99594.31;5022078;28;20388;-39
2023/03/13 08:52:04;;;;;;;16.92;11.52;;;;;;;14.57;86.40;99602.22;5032034;28;20033;-40
2023/03/13 08:54:31;;;;;;;19.95;12.15;;;;;;;14.52;86.16;99597.75;5031892;28;20033;-40
2023/03/13 08:56:56;;;;;;;18.70;12.15;;;;;;;14.51;86.64;99596.13;5031873;28;20088;-40
2023/03/13 08:59:22;;;;;;;18.25;11.95;;;;;;;14.45;86.69;99609.53;5031049;28;20037;-40
2023/03/13 09:01:47;;;;;;;19.20;11.90;;;;;;;14.45;87.25;99609.53;5031389;28;20056;-39
2023/03/13 09:04:12;;;;;;;18.35;11.80;;;;;;;14.46;86.34;99597.22;5032049;28;20388;-40
2023/03/13 09:06:38;;;;;;;17.50;11.60;;;;;;;14.54;85.57;99597.41;5031805;28;20112;-40
2023/03/13 09:09:04;;;;;;;18.05;11.98;;;;;;;14.57;85.34;99578.00;5030269;28;20075;-40
2023/03/13 09:11:30;;;;;;;18.65;11.90;;;;;;;14.60;84.79;99557.78;5030064;28;20122;-40
2023/03/13 09:13:58;;;;;;;18.60;12.07;;;;;;;14.69;84.90;99565.94;5031498;28;20104;-40
2023/03/13 09:16:26;;;;;;;16.20;11.75;;;;;;;14.76;84.43;99582.00;5031488;28;20039;-40
2023/03/13 09:18:52;;;;;;;16.83;11.48;;;;;;;14.82;83.27;99561.03;5022129;28;20040;-41
2023/03/13 09:21:20;;;;;;;17.80;11.65;;;;;;;14.84;82.79;99563.44;5019527;28;20026;-41
2023/03/13 09:23:46;;;;;;;17.80;11.40;;;;;;;14.82;83.06;99559.06;5027464;28;20047;-40
2023/03/13 09:26:12;;;;;;;17.17;11.68;;;;;;;14.82;82.77;99536.81;5031425;28;20543;-41
2023/03/13 09:28:38;;;;;;;17.23;11.75;;;;;;;14.85;83.22;99546.38;5031512;28;20044;-41
2023/03/13 09:31:18;;;;;;;17.27;11.98;;;;;;;14.89;83.39;99552.81;5031177;28;20037;-41
2023/03/13 09:33:45;;;;;;;19.23;12.65;;;;;;;14.89;83.67;99544.47;5031253;28;20035;-41
2023/03/13 09:36:11;;;;;;;18.55;11.85;;;;;;;14.90;83.89;99534.16;5031090;28;20090;-40
2023/03/13 09:38:37;;;;;;;17.70;12.07;;;;;;;14.91;84.07;99538.56;5029609;28;20037;-40
2023/03/13 09:41:24;;;;;;;18.83;11.60;;;;;;;14.94;83.92;99527.47;5031396;28;20476;-40
2023/03/13 09:43:59;;;;;;;18.10;12.10;;;;;;;14.95;83.54;99517.97;5011941;28;20513;-41
2023/03/13 09:46:33;;;;;;;17.90;12.23;;;;;;;14.97;83.18;99523.94;5009758;28;20037;-40
2023/03/13 09:49:28;;;;;;;18.10;11.98;;;;;;;15.05;84.17;99507.38;5009784;28;20037;-40
2023/03/13 09:52:04;;;;;;;16.45;11.60;;;;;;;15.11;82.72;99512.25;5006468;28;20041;-40
2023/03/13 09:54:44;;;;;;;18.63;11.70;;;;;;;15.17;81.76;99507.19;5011136;28;20156;-40
2023/03/13 09:57:38;;;;;;;18.38;11.80;;;;;;;15.29;81.26;99498.66;5010912;28;20048;-41
2023/03/13 10:00:18;;;;;;;18.30;11.70;;;;;;;15.30;80.53;99491.13;5010783;28;20057;-41
2023/03/13 10:03:20;;;;;;;16.45;11.50;;;;;;;15.38;80.30;99512.38;5010932;28;20084;-40
2023/03/13 10:05:48;;;;;;;17.17;11.35;;;;;;;15.41;78.90;99503.25;5008772;28;20056;-40
2023/03/13 10:08:15;;;;;;;17.67;11.30;;;;;;;15.46;79.12;99510.47;5010929;28;20033;-40
2023/03/13 10:11:03;;;;;;;16.20;10.82;;;;;;;15.44;78.40;99499.72;5010486;28;20029;-41
2023/03/13 10:13:46;;;;;;;15.88;10.98;;;;;;;15.44;77.86;99485.78;5023273;28;20073;-40
2023/03/13 10:16:22;;;;;;;15.38;10.65;;;;;;;15.56;77.19;99509.06;5019626;28;20018;-40
2023/03/13 10:18:54;;;;;;;17.20;11.10;;;;;;;15.49;77.82;99475.50;5019161;28;20034;-40
2023/03/13 10:21:21;;;;;;;15.75;10.80;;;;;;;15.57;76.83;99483.59;5016645;28;20064;-40
2023/03/13 10:24:02;;;;;;;15.25;10.50;;;;;;;15.64;77.07;99487.66;5020402;28;20553;-41
2023/03/13 10:26:32;;;;;;;17.45;11.15;;;;;;;15.67;76.61;99484.16;5022147;28;20099;-41
2023/03/13 10:29:11;;;;;;;15.80;11.18;;;;;;;15.70;76.52;99494.56;5024414;28;20105;-41
2023/03/13 10:31:38;;;;;;;16.52;11.13;;;;;;;15.74;76.22;99484.25;5012671;28;20534;-40
2023/03/13 10:34:12;;;;;;;15.90;10.95;;;;;;;15.77;75.90;99491.88;5010318;28;20030;-40
2023/03/13 10:36:49;;;;;;;15.82;11.20;;;;;;;15.78;75.33;99475.94;5010316;28;20029;-41
2023/03/13 10:39:17;;;;;;;17.27;11.48;;;;;;;15.79;74.27;99466.41;5010146;28;20026;-41
2023/03/13 10:41:42;;;;;;;17.33;11.38;;;;;;;15.88;74.74;99473.34;5010424;28;20111;-40
2023/03/13 10:44:19;;;;;;;16.58;10.90;;;;;;;15.93;73.93;99466.66;5010079;28;20478;-41
2023/03/13 10:46:46;;;;;;;15.50;10.90;;;;;;;15.98;72.76;99477.47;5008806;28;20030;-40
2023/03/13 10:49:18;;;;;;;16.30;11.18;;;;;;;15.98;73.32;99471.88;5010065;28;20034;-40
2023/03/13 10:51:48;;;;;;;16.42;11.40;;;;;;;15.96;73.16;99454.75;5008303;28;20117;-40
2023/03/13 10:54:15;;;;;;;16.60;11.85;;;;;;;15.96;73.09;99453.94;5010243;28;20401;-40
2023/03/13 10:56:41;;;;;;;15.68;10.93;;;;;;;15.99;72.70;99442.03;5012707;28;20030;-41
2023/03/13 10:59:20;;;;;;;15.50;11.40;;;;;;;16.07;72.68;99460.47;5023875;28;20037;-41
2023/03/13 11:01:47;;;;;;;14.88;11.05;;;;;;;16.05;72.01;99440.50;5029961;28;20519;-41
2023/03/13 11:04:38;;;;;;;16.33;11.57;;;;;;;16.13;73.73;99450.56;5030009;28;20038;-41
2023/03/13 11:07:33;;;;;;;14.27;11.15;;;;;;;16.02;74.04;99428.13;5026734;28;20116;-40
2023/03/13 11:10:15;;;;;;;15.35;11.27;;;;;;;16.01;72.12;99429.31;5029771;28;20428;-41
2023/03/13 11:12:46;;;;;;;17.27;11.50;;;;;;;16.04;72.54;99430.53;5029669;28;20032;-41
2023/03/13 11:15:17;;;;;;;15.82;11.20;;;;;;;15.92;73.53;99414.84;5029693;28;20056;-41
2023/03/13 11:17:55;;;;;;;15.18;11.05;;;;;;;16.06;72.12;99430.97;5029793;28;20179;-41